sensor_id;sensor_type;location;lat;lon;timestamp;temperature;humidity
1506;DHT22;744;51.436;7.356;2023-05-10T00:01:33;18.30;53.20
1506;DHT22;744;51.436;7.356;2023-05-10T00:03:59;18.20;53.30
1506;DHT22;744;51.436;7.356;2023-05-10T00:06:26;18.20;53.60
1506;DHT22;744;51.436;7.356;2023-05-10T00:08:54;18.20;53.40
1506;DHT22;744;51.436;7.356;2023-05-10T00:11:21;18.30;53.20
1506;DHT22;744;51.436;7.356;2023-05-10T00:13:48;18.20;53.20
1506;DHT22;744;51.436;7.356;2023-05-10T00:16:15;18.20;53.20
1506;DHT22;744;51.436;7.356;2023-05-10T00:18:42;18.00;53.20
1506;DHT22;744;51.436;7.356;2023-05-10T00:21:09;18.20;53.30
1506;DHT22;744;51.436;7.356;2023-05-10T00:23:36;18.10;53.30
1506;DHT22;744;51.436;7.356;2023-05-10T00:26:03;18.10;53.60
1506;DHT22;744;51.436;7.356;2023-05-10T00:28:30;18.20;53.60
1506;DHT22;744;51.436;7.356;2023-05-10T00:30:57;18.20;53.30
1506;DHT22;744;51.436;7.356;2023-05-10T00:33:24;18.10;53.30
1506;DHT22;744;51.436;7.356;2023-05-10T00:35:51;18.00;53.50
1506;DHT22;744;51.436;7.356;2023-05-10T00:38:18;18.10;53.60
1506;DHT22;744;51.436;7.356;2023-05-10T00:40:44;18.10;53.60
1506;DHT22;744;51.436;7.356;2023-05-10T00:43:11;18.10;53.50
1506;DHT22;744;51.436;7.356;2023-05-10T00:45:40;18.10;53.70
1506;DHT22;744;51.436;7.356;2023-05-10T00:48:07;18.00;53.50
1506;DHT22;744;51.436;7.356;2023-05-10T00:50:34;18.10;54.20
1506;DHT22;744;51.436;7.356;2023-05-10T00:53:02;17.90;54.00
1506;DHT22;744;51.436;7.356;2023-05-10T00:55:29;17.90;54.00
1506;DHT22;744;51.436;7.356;2023-05-10T00:57:56;17.90;54.00
1506;DHT22;744;51.436;7.356;2023-05-10T01:00:23;18.10;54.30
1506;DHT22;744;51.436;7.356;2023-05-10T01:02:50;17.80;54.00
1506;DHT22;744;51.436;7.356;2023-05-10T01:05:17;18.00;54.10
1506;DHT22;744;51.436;7.356;2023-05-10T01:07:44;18.00;54.20
1506;DHT22;744;51.436;7.356;2023-05-10T01:10:11;18.00;54.10
1506;DHT22;744;51.436;7.356;2023-05-10T01:12:40;18.20;54.20
1506;DHT22;744;51.436;7.356;2023-05-10T01:15:08;18.20;53.70
1506;DHT22;744;51.436;7.356;2023-05-10T01:17:38;18.20;53.80
1506;DHT22;744;51.436;7.356;2023-05-10T01:20:07;18.20;53.70
1506;DHT22;744;51.436;7.356;2023-05-10T01:34:06;18.20;54.30
1506;DHT22;744;51.436;7.356;2023-05-10T01:36:45;18.00;54.10
1506;DHT22;744;51.436;7.356;2023-05-10T01:39:24;18.00;54.10
1506;DHT22;744;51.436;7.356;2023-05-10T01:41:56;17.80;54.00
1506;DHT22;744;51.436;7.356;2023-05-10T01:47:41;17.80;54.00
1506;DHT22;744;51.436;7.356;2023-05-10T01:50:18;17.50;53.70
1506;DHT22;744;51.436;7.356;2023-05-10T01:52:51;17.50;53.70
1506;DHT22;744;51.436;7.356;2023-05-10T01:55:20;17.60;54.20
1506;DHT22;744;51.436;7.356;2023-05-10T01:57:52;17.30;54.20
1506;DHT22;744;51.436;7.356;2023-05-10T02:00:23;17.30;54.60
1506;DHT22;744;51.436;7.356;2023-05-10T02:02:52;17.30;54.70
1506;DHT22;744;51.436;7.356;2023-05-10T02:05:20;17.30;54.70
1506;DHT22;744;51.436;7.356;2023-05-10T02:07:49;17.30;54.60
1506;DHT22;744;51.436;7.356;2023-05-10T02:10:17;17.30;54.60
1506;DHT22;744;51.436;7.356;2023-05-10T02:12:47;17.30;54.50
1506;DHT22;744;51.436;7.356;2023-05-10T02:15:18;17.10;54.30
1506;DHT22;744;51.436;7.356;2023-05-10T02:17:46;17.20;54.70
1506;DHT22;744;51.436;7.356;2023-05-10T02:20:16;17.40;54.90
1506;DHT22;744;51.436;7.356;2023-05-10T02:22:45;17.20;54.70
1506;DHT22;744;51.436;7.356;2023-05-10T02:25:14;17.00;54.60
1506;DHT22;744;51.436;7.356;2023-05-10T02:27:44;17.00;54.60
1506;DHT22;744;51.436;7.356;2023-05-10T02:30:11;17.10;54.80
1506;DHT22;744;51.436;7.356;2023-05-10T02:32:39;17.00;54.60
1506;DHT22;744;51.436;7.356;2023-05-10T02:35:07;17.00;54.70
1506;DHT22;744;51.436;7.356;2023-05-10T02:37:36;17.20;54.90
1506;DHT22;744;51.436;7.356;2023-05-10T02:40:04;17.30;54.90
1506;DHT22;744;51.436;7.356;2023-05-10T02:42:35;17.10;54.70
1506;DHT22;744;51.436;7.356;2023-05-10T02:45:10;17.10;54.70
1506;DHT22;744;51.436;7.356;2023-05-10T02:47:38;17.10;54.80
1506;DHT22;744;51.436;7.356;2023-05-10T02:50:05;17.00;54.70
1506;DHT22;744;51.436;7.356;2023-05-10T02:52:46;16.80;54.70
1506;DHT22;744;51.436;7.356;2023-05-10T02:55:15;17.00;54.90
1506;DHT22;744;51.436;7.356;2023-05-10T02:57:48;17.10;54.90
1506;DHT22;744;51.436;7.356;2023-05-10T03:00:16;17.30;55.00
1506;DHT22;744;51.436;7.356;2023-05-10T03:02:44;17.30;54.80
1506;DHT22;744;51.436;7.356;2023-05-10T03:05:10;17.20;54.60
1506;DHT22;744;51.436;7.356;2023-05-10T03:07:37;17.20;54.40
1506;DHT22;744;51.436;7.356;2023-05-10T03:10:05;17.20;54.30
1506;DHT22;744;51.436;7.356;2023-05-10T03:12:56;17.20;54.20
1506;DHT22;744;51.436;7.356;2023-05-10T03:20:46;17.00;54.10
1506;DHT22;744;51.436;7.356;2023-05-10T03:23:24;17.00;54.00
1506;DHT22;744;51.436;7.356;2023-05-10T03:25:53;17.10;54.10
1506;DHT22;744;51.436;7.356;2023-05-10T03:28:20;17.30;54.30
1506;DHT22;744;51.436;7.356;2023-05-10T03:30:49;17.20;54.10
1506;DHT22;744;51.436;7.356;2023-05-10T03:33:16;17.10;53.70
1506;DHT22;744;51.436;7.356;2023-05-10T03:35:42;17.50;53.80
1506;DHT22;744;51.436;7.356;2023-05-10T03:38:12;17.40;53.70
1506;DHT22;744;51.436;7.356;2023-05-10T03:40:39;17.40;53.60
1506;DHT22;744;51.436;7.356;2023-05-10T03:43:06;17.50;53.70
1506;DHT22;744;51.436;7.356;2023-05-10T03:45:33;17.50;53.70
1506;DHT22;744;51.436;7.356;2023-05-10T03:48:00;17.60;53.80
1506;DHT22;744;51.436;7.356;2023-05-10T03:50:27;17.40;53.60
1506;DHT22;744;51.436;7.356;2023-05-10T03:52:54;17.50;53.70
1506;DHT22;744;51.436;7.356;2023-05-10T03:55:21;17.70;53.90
1506;DHT22;744;51.436;7.356;2023-05-10T03:57:48;17.50;53.70
1506;DHT22;744;51.436;7.356;2023-05-10T04:00:16;17.50;53.70
1506;DHT22;744;51.436;7.356;2023-05-10T04:02:43;17.50;53.70
1506;DHT22;744;51.436;7.356;2023-05-10T04:05:12;17.40;53.60
1506;DHT22;744;51.436;7.356;2023-05-10T04:07:39;17.50;53.70
1506;DHT22;744;51.436;7.356;2023-05-10T04:10:06;17.60;53.80
1506;DHT22;744;51.436;7.356;2023-05-10T04:12:33;17.50;53.70
1506;DHT22;744;51.436;7.356;2023-05-10T04:15:00;17.50;53.70
1506;DHT22;744;51.436;7.356;2023-05-10T04:17:27;17.50;53.70
1506;DHT22;744;51.436;7.356;2023-05-10T04:19:55;17.30;53.60
1506;DHT22;744;51.436;7.356;2023-05-10T04:22:22;17.70;53.90
1506;DHT22;744;51.436;7.356;2023-05-10T04:24:49;17.50;53.70
1506;DHT22;744;51.436;7.356;2023-05-10T04:27:16;17.40;53.60
1506;DHT22;744;51.436;7.356;2023-05-10T04:29:42;17.40;53.70
1506;DHT22;744;51.436;7.356;2023-05-10T04:32:10;17.40;53.60
1506;DHT22;744;51.436;7.356;2023-05-10T04:34:37;17.40;53.60
1506;DHT22;744;51.436;7.356;2023-05-10T04:37:10;17.50;53.70
1506;DHT22;744;51.436;7.356;2023-05-10T04:39:36;17.40;53.70
1506;DHT22;744;51.436;7.356;2023-05-10T04:42:07;17.70;54.00
1506;DHT22;744;51.436;7.356;2023-05-10T04:44:33;17.50;53.70
1506;DHT22;744;51.436;7.356;2023-05-10T04:47:01;17.40;53.60
1506;DHT22;744;51.436;7.356;2023-05-10T04:49:29;17.40;53.60
1506;DHT22;744;51.436;7.356;2023-05-10T04:51:56;17.40;53.60
1506;DHT22;744;51.436;7.356;2023-05-10T04:54:23;17.60;53.80
1506;DHT22;744;51.436;7.356;2023-05-10T04:56:49;17.40;53.60
1506;DHT22;744;51.436;7.356;2023-05-10T04:59:16;17.30;53.50
1506;DHT22;744;51.436;7.356;2023-05-10T05:01:43;17.50;53.80
1506;DHT22;744;51.436;7.356;2023-05-10T05:04:10;17.30;54.00
1506;DHT22;744;51.436;7.356;2023-05-10T05:06:37;17.40;53.70
1506;DHT22;744;51.436;7.356;2023-05-10T05:09:04;17.20;53.40
1506;DHT22;744;51.436;7.356;2023-05-10T05:11:31;17.40;53.60
1506;DHT22;744;51.436;7.356;2023-05-10T05:13:58;17.20;53.50
1506;DHT22;744;51.436;7.356;2023-05-10T05:16:25;17.50;53.70
1506;DHT22;744;51.436;7.356;2023-05-10T05:18:53;17.40;53.90
1506;DHT22;744;51.436;7.356;2023-05-10T05:21:20;17.40;53.80
1506;DHT22;744;51.436;7.356;2023-05-10T05:23:47;17.70;54.30
1506;DHT22;744;51.436;7.356;2023-05-10T05:26:14;17.20;53.80
1506;DHT22;744;51.436;7.356;2023-05-10T05:28:41;17.30;53.70
1506;DHT22;744;51.436;7.356;2023-05-10T05:31:08;17.40;53.90
1506;DHT22;744;51.436;7.356;2023-05-10T05:33:35;17.60;54.40
1506;DHT22;744;51.436;7.356;2023-05-10T05:36:03;17.50;54.40
1506;DHT22;744;51.436;7.356;2023-05-10T05:38:31;17.30;54.20
1506;DHT22;744;51.436;7.356;2023-05-10T05:40:57;17.40;54.30
1506;DHT22;744;51.436;7.356;2023-05-10T05:43:24;17.30;54.30
1506;DHT22;744;51.436;7.356;2023-05-10T05:45:54;17.50;54.40
1506;DHT22;744;51.436;7.356;2023-05-10T05:48:21;17.40;54.40
1506;DHT22;744;51.436;7.356;2023-05-10T05:50:48;17.20;54.30
1506;DHT22;744;51.436;7.356;2023-05-10T05:53:15;17.50;54.60
1506;DHT22;744;51.436;7.356;2023-05-10T05:55:55;17.50;54.50
1506;DHT22;744;51.436;7.356;2023-05-10T05:58:23;17.70;54.60
1506;DHT22;744;51.436;7.356;2023-05-10T06:00:50;17.50;54.50
1506;DHT22;744;51.436;7.356;2023-05-10T06:03:18;17.50;54.50
1506;DHT22;744;51.436;7.356;2023-05-10T06:05:45;17.50;54.60
1506;DHT22;744;51.436;7.356;2023-05-10T06:08:12;17.30;54.50
1506;DHT22;744;51.436;7.356;2023-05-10T06:10:39;17.50;54.70
1506;DHT22;744;51.436;7.356;2023-05-10T06:13:06;17.60;54.70
1506;DHT22;744;51.436;7.356;2023-05-10T06:15:32;17.40;54.60
1506;DHT22;744;51.436;7.356;2023-05-10T06:17:59;17.50;54.90
1506;DHT22;744;51.436;7.356;2023-05-10T06:20:26;17.40;54.70
1506;DHT22;744;51.436;7.356;2023-05-10T06:22:54;17.70;55.00
1506;DHT22;744;51.436;7.356;2023-05-10T06:25:20;17.60;54.80
1506;DHT22;744;51.436;7.356;2023-05-10T06:27:47;17.60;54.80
1506;DHT22;744;51.436;7.356;2023-05-10T06:30:19;17.60;54.60
1506;DHT22;744;51.436;7.356;2023-05-10T06:32:53;17.60;54.50
1506;DHT22;744;51.436;7.356;2023-05-10T06:35:38;17.50;54.70
1506;DHT22;744;51.436;7.356;2023-05-10T06:38:05;17.70;55.20
1506;DHT22;744;51.436;7.356;2023-05-10T06:40:32;17.50;55.10
1506;DHT22;744;51.436;7.356;2023-05-10T06:42:59;17.30;54.90
1506;DHT22;744;51.436;7.356;2023-05-10T06:45:26;17.70;55.50
1506;DHT22;744;51.436;7.356;2023-05-10T06:47:52;17.50;55.70
1506;DHT22;744;51.436;7.356;2023-05-10T06:50:19;17.30;55.60
1506;DHT22;744;51.436;7.356;2023-05-10T06:52:46;17.30;55.90
1506;DHT22;744;51.436;7.356;2023-05-10T06:55:13;17.30;55.70
1506;DHT22;744;51.436;7.356;2023-05-10T06:57:40;17.40;55.80
1506;DHT22;744;51.436;7.356;2023-05-10T07:00:07;17.60;56.20
1506;DHT22;744;51.436;7.356;2023-05-10T07:02:36;17.60;55.90
1506;DHT22;744;51.436;7.356;2023-05-10T07:05:03;17.50;55.80
1506;DHT22;744;51.436;7.356;2023-05-10T07:07:30;17.50;55.90
1506;DHT22;744;51.436;7.356;2023-05-10T07:09:57;17.90;56.10
1506;DHT22;744;51.436;7.356;2023-05-10T07:12:24;17.90;56.00
1506;DHT22;744;51.436;7.356;2023-05-10T07:14:51;17.80;55.70
1506;DHT22;744;51.436;7.356;2023-05-10T07:17:18;17.80;55.60
1506;DHT22;744;51.436;7.356;2023-05-10T07:19:45;17.80;55.60
1506;DHT22;744;51.436;7.356;2023-05-10T07:22:12;17.80;55.70
1506;DHT22;744;51.436;7.356;2023-05-10T07:24:39;17.70;55.80
1506;DHT22;744;51.436;7.356;2023-05-10T07:27:06;18.00;56.00
1506;DHT22;744;51.436;7.356;2023-05-10T07:29:33;17.70;55.60
1506;DHT22;744;51.436;7.356;2023-05-10T07:32:00;17.90;55.70
1506;DHT22;744;51.436;7.356;2023-05-10T07:34:27;18.00;55.60
1506;DHT22;744;51.436;7.356;2023-05-10T07:36:58;18.00;55.30
1506;DHT22;744;51.436;7.356;2023-05-10T07:39:26;18.20;55.40
1506;DHT22;744;51.436;7.356;2023-05-10T07:41:56;18.20;55.20
1506;DHT22;744;51.436;7.356;2023-05-10T07:44:23;18.10;54.80
1506;DHT22;744;51.436;7.356;2023-05-10T07:46:50;17.80;55.10
1506;DHT22;744;51.436;7.356;2023-05-10T07:49:17;18.00;55.20
1506;DHT22;744;51.436;7.356;2023-05-10T07:51:44;18.10;55.10
1506;DHT22;744;51.436;7.356;2023-05-10T07:54:11;18.10;55.10
1506;DHT22;744;51.436;7.356;2023-05-10T07:56:38;18.20;55.10
1506;DHT22;744;51.436;7.356;2023-05-10T07:59:06;18.20;54.90
1506;DHT22;744;51.436;7.356;2023-05-10T08:01:35;18.20;54.70
1506;DHT22;744;51.436;7.356;2023-05-10T08:04:02;18.30;54.80
1506;DHT22;744;51.436;7.356;2023-05-10T08:06:29;18.30;54.60
1506;DHT22;744;51.436;7.356;2023-05-10T08:08:56;18.50;54.50
1506;DHT22;744;51.436;7.356;2023-05-10T08:11:23;18.50;54.60
1506;DHT22;744;51.436;7.356;2023-05-10T08:13:51;18.40;54.50
1506;DHT22;744;51.436;7.356;2023-05-10T08:16:18;18.30;54.40
1506;DHT22;744;51.436;7.356;2023-05-10T08:18:46;18.30;54.40
1506;DHT22;744;51.436;7.356;2023-05-10T08:21:14;18.30;54.40
1506;DHT22;744;51.436;7.356;2023-05-10T08:23:41;18.50;54.60
1506;DHT22;744;51.436;7.356;2023-05-10T08:26:10;18.40;54.50
1506;DHT22;744;51.436;7.356;2023-05-10T08:28:37;18.30;54.40
1506;DHT22;744;51.436;7.356;2023-05-10T08:31:05;18.40;54.50
1506;DHT22;744;51.436;7.356;2023-05-10T08:33:32;18.30;54.40
1506;DHT22;744;51.436;7.356;2023-05-10T08:35:59;18.30;54.40
1506;DHT22;744;51.436;7.356;2023-05-10T08:38:25;18.30;54.40
1506;DHT22;744;51.436;7.356;2023-05-10T08:40:54;18.40;54.50
1506;DHT22;744;51.436;7.356;2023-05-10T08:43:29;18.60;54.60
1506;DHT22;744;51.436;7.356;2023-05-10T08:45:56;18.40;54.50
1506;DHT22;744;51.436;7.356;2023-05-10T08:48:29;18.30;54.40
1506;DHT22;744;51.436;7.356;2023-05-10T08:50:58;18.40;54.50
1506;DHT22;744;51.436;7.356;2023-05-10T08:53:25;18.50;54.50
1506;DHT22;744;51.436;7.356;2023-05-10T08:55:54;18.70;54.60
1506;DHT22;744;51.436;7.356;2023-05-10T08:58:22;18.70;54.50
1506;DHT22;744;51.436;7.356;2023-05-10T09:00:49;18.40;54.40
1506;DHT22;744;51.436;7.356;2023-05-10T09:03:18;18.50;54.20
1506;DHT22;744;51.436;7.356;2023-05-10T09:05:46;18.40;54.10
1506;DHT22;744;51.436;7.356;2023-05-10T09:08:13;18.40;54.30
1506;DHT22;744;51.436;7.356;2023-05-10T09:10:44;18.30;54.20
1506;DHT22;744;51.436;7.356;2023-05-10T09:13:12;18.40;54.50
1506;DHT22;744;51.436;7.356;2023-05-10T09:15:40;18.40;54.50
1506;DHT22;744;51.436;7.356;2023-05-10T09:18:07;18.60;54.20
1506;DHT22;744;51.436;7.356;2023-05-10T09:20:34;18.60;53.60
1506;DHT22;744;51.436;7.356;2023-05-10T09:23:01;18.60;53.50
1506;DHT22;744;51.436;7.356;2023-05-10T09:25:28;18.60;53.30
1506;DHT22;744;51.436;7.356;2023-05-10T09:27:55;18.70;53.40
1506;DHT22;744;51.436;7.356;2023-05-10T09:30:29;18.80;53.20
1506;DHT22;744;51.436;7.356;2023-05-10T09:32:58;18.80;53.20
1506;DHT22;744;51.436;7.356;2023-05-10T09:35:29;18.70;52.90
1506;DHT22;744;51.436;7.356;2023-05-10T09:38:01;18.70;53.10
1506;DHT22;744;51.436;7.356;2023-05-10T09:40:29;18.60;53.20
1506;DHT22;744;51.436;7.356;2023-05-10T09:43:00;18.60;52.90
1506;DHT22;744;51.436;7.356;2023-05-10T09:45:29;18.80;54.00
1506;DHT22;744;51.436;7.356;2023-05-10T09:47:58;18.80;53.20
1506;DHT22;744;51.436;7.356;2023-05-10T09:50:26;19.00;52.90
1506;DHT22;744;51.436;7.356;2023-05-10T09:52:58;19.20;52.60
1506;DHT22;744;51.436;7.356;2023-05-10T09:55:41;19.20;52.30
1506;DHT22;744;51.436;7.356;2023-05-10T09:58:09;19.20;52.00
1506;DHT22;744;51.436;7.356;2023-05-10T10:00:44;19.20;52.00
1506;DHT22;744;51.436;7.356;2023-05-10T10:03:16;19.10;51.70
1506;DHT22;744;51.436;7.356;2023-05-10T10:05:44;19.00;51.80
1506;DHT22;744;51.436;7.356;2023-05-10T10:08:12;19.10;51.70
1506;DHT22;744;51.436;7.356;2023-05-10T10:10:40;19.40;52.00
1506;DHT22;744;51.436;7.356;2023-05-10T10:13:07;19.10;51.30
1506;DHT22;744;51.436;7.356;2023-05-10T10:15:35;19.10;51.20
1506;DHT22;744;51.436;7.356;2023-05-10T10:18:02;18.90;51.00
1506;DHT22;744;51.436;7.356;2023-05-10T10:20:31;19.00;51.00
1506;DHT22;744;51.436;7.356;2023-05-10T10:22:57;19.00;51.10
1506;DHT22;744;51.436;7.356;2023-05-10T10:25:25;19.10;51.40
1506;DHT22;744;51.436;7.356;2023-05-10T10:30:31;18.80;50.80
1506;DHT22;744;51.436;7.356;2023-05-10T10:35:52;18.90;50.50
1506;DHT22;744;51.436;7.356;2023-05-10T10:38:20;18.90;50.50
1506;DHT22;744;51.436;7.356;2023-05-10T10:40:47;18.70;50.40
1506;DHT22;744;51.436;7.356;2023-05-10T10:43:28;18.80;50.20
1506;DHT22;744;51.436;7.356;2023-05-10T10:46:14;18.70;50.30
1506;DHT22;744;51.436;7.356;2023-05-10T10:49:08;18.30;50.40
1506;DHT22;744;51.436;7.356;2023-05-10T10:51:39;18.40;50.80
1506;DHT22;744;51.436;7.356;2023-05-10T10:54:10;18.40;51.00
1506;DHT22;744;51.436;7.356;2023-05-10T10:56:37;18.60;51.00
1506;DHT22;744;51.436;7.356;2023-05-10T10:59:04;18.60;50.60
1506;DHT22;744;51.436;7.356;2023-05-10T11:01:34;18.50;50.80
1506;DHT22;744;51.436;7.356;2023-05-10T11:06:33;18.70;50.30
1506;DHT22;744;51.436;7.356;2023-05-10T11:09:12;18.80;50.30
1506;DHT22;744;51.436;7.356;2023-05-10T11:11:57;18.90;50.00
1506;DHT22;744;51.436;7.356;2023-05-10T11:14:26;19.00;49.80
1506;DHT22;744;51.436;7.356;2023-05-10T11:16:52;18.70;50.00
1506;DHT22;744;51.436;7.356;2023-05-10T11:19:19;19.10;50.00
1506;DHT22;744;51.436;7.356;2023-05-10T11:21:52;19.00;49.70
1506;DHT22;744;51.436;7.356;2023-05-10T11:24:38;18.90;49.50
1506;DHT22;744;51.436;7.356;2023-05-10T11:27:05;19.00;49.30
1506;DHT22;744;51.436;7.356;2023-05-10T11:29:32;19.00;48.70
1506;DHT22;744;51.436;7.356;2023-05-10T11:31:59;18.90;48.80
1506;DHT22;744;51.436;7.356;2023-05-10T11:34:30;19.00;48.50
1506;DHT22;744;51.436;7.356;2023-05-10T11:37:00;18.90;48.40
1506;DHT22;744;51.436;7.356;2023-05-10T11:39:28;19.00;48.60
1506;DHT22;744;51.436;7.356;2023-05-10T11:41:56;19.10;48.50
1506;DHT22;744;51.436;7.356;2023-05-10T11:44:24;18.80;48.20
1506;DHT22;744;51.436;7.356;2023-05-10T11:46:58;19.00;48.30
1506;DHT22;744;51.436;7.356;2023-05-10T11:49:26;19.20;48.50
1506;DHT22;744;51.436;7.356;2023-05-10T11:51:53;18.90;48.10
1506;DHT22;744;51.436;7.356;2023-05-10T11:54:19;18.70;48.70
1506;DHT22;744;51.436;7.356;2023-05-10T11:56:46;18.60;48.60
1506;DHT22;744;51.436;7.356;2023-05-10T11:59:14;18.90;49.20
1506;DHT22;744;51.436;7.356;2023-05-10T12:01:41;18.80;48.70
1506;DHT22;744;51.436;7.356;2023-05-10T12:04:08;19.00;48.90
1506;DHT22;744;51.436;7.356;2023-05-10T12:06:40;18.70;48.60
1506;DHT22;744;51.436;7.356;2023-05-10T12:09:07;18.90;48.50
1506;DHT22;744;51.436;7.356;2023-05-10T12:11:40;18.80;48.60
1506;DHT22;744;51.436;7.356;2023-05-10T12:14:10;19.10;48.90
1506;DHT22;744;51.436;7.356;2023-05-10T12:16:37;19.00;48.30
1506;DHT22;744;51.436;7.356;2023-05-10T12:19:04;18.70;48.40
1506;DHT22;744;51.436;7.356;2023-05-10T12:21:32;18.90;47.90
1506;DHT22;744;51.436;7.356;2023-05-10T12:24:02;19.20;48.10
1506;DHT22;744;51.436;7.356;2023-05-10T12:26:29;19.30;48.20
1506;DHT22;744;51.436;7.356;2023-05-10T12:29:12;19.30;48.40
1506;DHT22;744;51.436;7.356;2023-05-10T12:31:55;19.20;48.30
1506;DHT22;744;51.436;7.356;2023-05-10T12:34:33;19.10;47.50
1506;DHT22;744;51.436;7.356;2023-05-10T12:37:01;19.10;47.80
1506;DHT22;744;51.436;7.356;2023-05-10T12:39:42;19.30;47.50
1506;DHT22;744;51.436;7.356;2023-05-10T12:42:09;19.30;47.30
1506;DHT22;744;51.436;7.356;2023-05-10T12:44:38;19.30;47.00
1506;DHT22;744;51.436;7.356;2023-05-10T12:47:05;19.40;47.20
1506;DHT22;744;51.436;7.356;2023-05-10T12:49:32;19.50;46.80
1506;DHT22;744;51.436;7.356;2023-05-10T12:52:00;19.20;46.30
1506;DHT22;744;51.436;7.356;2023-05-10T12:54:27;19.50;46.70
1506;DHT22;744;51.436;7.356;2023-05-10T12:56:54;19.70;47.40
1506;DHT22;744;51.436;7.356;2023-05-10T12:59:21;19.60;46.70
1506;DHT22;744;51.436;7.356;2023-05-10T13:01:49;19.80;46.80
1506;DHT22;744;51.436;7.356;2023-05-10T13:04:16;19.80;46.80
1506;DHT22;744;51.436;7.356;2023-05-10T13:06:43;19.80;46.60
1506;DHT22;744;51.436;7.356;2023-05-10T13:09:10;20.00;46.70
1506;DHT22;744;51.436;7.356;2023-05-10T13:11:37;20.20;45.90
1506;DHT22;744;51.436;7.356;2023-05-10T13:14:04;20.10;46.00
1506;DHT22;744;51.436;7.356;2023-05-10T13:16:31;19.90;45.80
1506;DHT22;744;51.436;7.356;2023-05-10T13:18:58;19.80;46.00
1506;DHT22;744;51.436;7.356;2023-05-10T13:21:25;19.90;46.40
1506;DHT22;744;51.436;7.356;2023-05-10T13:23:52;20.00;46.30
1506;DHT22;744;51.436;7.356;2023-05-10T13:26:19;20.10;47.00
1506;DHT22;744;51.436;7.356;2023-05-10T13:28:46;20.10;46.50
1506;DHT22;744;51.436;7.356;2023-05-10T13:31:15;20.10;45.60
1506;DHT22;744;51.436;7.356;2023-05-10T13:33:42;19.90;45.50
1506;DHT22;744;51.436;7.356;2023-05-10T13:36:08;19.90;45.50
1506;DHT22;744;51.436;7.356;2023-05-10T13:38:35;19.90;45.90
1506;DHT22;744;51.436;7.356;2023-05-10T13:41:02;19.90;46.00
1506;DHT22;744;51.436;7.356;2023-05-10T13:43:29;19.90;45.90
1506;DHT22;744;51.436;7.356;2023-05-10T13:45:56;19.80;45.60
1506;DHT22;744;51.436;7.356;2023-05-10T13:48:27;19.90;46.00
1506;DHT22;744;51.436;7.356;2023-05-10T13:50:53;19.90;45.80
1506;DHT22;744;51.436;7.356;2023-05-10T13:53:20;20.20;45.90
1506;DHT22;744;51.436;7.356;2023-05-10T13:55:48;20.30;45.90
1506;DHT22;744;51.436;7.356;2023-05-10T13:58:15;20.40;45.60
1506;DHT22;744;51.436;7.356;2023-05-10T14:00:42;20.60;45.20
1506;DHT22;744;51.436;7.356;2023-05-10T14:03:09;20.70;45.00
1506;DHT22;744;51.436;7.356;2023-05-10T14:05:38;20.50;43.50
1506;DHT22;744;51.436;7.356;2023-05-10T14:08:05;20.40;43.00
1506;DHT22;744;51.436;7.356;2023-05-10T14:10:31;20.50;43.20
1506;DHT22;744;51.436;7.356;2023-05-10T14:12:58;20.60;43.00
1506;DHT22;744;51.436;7.356;2023-05-10T14:15:25;20.60;42.30
1506;DHT22;744;51.436;7.356;2023-05-10T14:17:52;20.60;42.90
1506;DHT22;744;51.436;7.356;2023-05-10T14:20:19;20.60;42.10
1506;DHT22;744;51.436;7.356;2023-05-10T14:22:46;20.60;41.90
1506;DHT22;744;51.436;7.356;2023-05-10T14:25:13;20.70;42.10
1506;DHT22;744;51.436;7.356;2023-05-10T14:27:41;20.70;42.50
1506;DHT22;744;51.436;7.356;2023-05-10T14:30:08;20.90;41.90
1506;DHT22;744;51.436;7.356;2023-05-10T14:32:35;20.90;41.20
1506;DHT22;744;51.436;7.356;2023-05-10T14:35:03;21.00;41.20
1506;DHT22;744;51.436;7.356;2023-05-10T14:37:31;21.10;41.40
1506;DHT22;744;51.436;7.356;2023-05-10T14:39:59;21.20;40.50
1506;DHT22;744;51.436;7.356;2023-05-10T14:42:27;21.20;40.40
1506;DHT22;744;51.436;7.356;2023-05-10T14:44:55;21.20;40.00
1506;DHT22;744;51.436;7.356;2023-05-10T14:47:23;21.20;39.40
1506;DHT22;744;51.436;7.356;2023-05-10T14:49:50;21.10;39.90
1506;DHT22;744;51.436;7.356;2023-05-10T14:52:18;21.30;40.10
1506;DHT22;744;51.436;7.356;2023-05-10T14:54:45;21.40;40.00
1506;DHT22;744;51.436;7.356;2023-05-10T14:57:12;21.40;39.10
1506;DHT22;744;51.436;7.356;2023-05-10T14:59:39;21.40;39.80
1506;DHT22;744;51.436;7.356;2023-05-10T15:02:06;21.70;39.80
1506;DHT22;744;51.436;7.356;2023-05-10T15:04:35;21.80;39.70
1506;DHT22;744;51.436;7.356;2023-05-10T15:07:02;21.90;39.50
1506;DHT22;744;51.436;7.356;2023-05-10T15:09:29;21.90;39.50
1506;DHT22;744;51.436;7.356;2023-05-10T15:11:56;21.80;39.40
1506;DHT22;744;51.436;7.356;2023-05-10T15:14:23;21.90;39.50
1506;DHT22;744;51.436;7.356;2023-05-10T15:16:50;21.90;39.50
1506;DHT22;744;51.436;7.356;2023-05-10T15:19:17;21.90;39.50
1506;DHT22;744;51.436;7.356;2023-05-10T15:21:44;21.80;39.70
1506;DHT22;744;51.436;7.356;2023-05-10T15:24:12;21.80;40.00
1506;DHT22;744;51.436;7.356;2023-05-10T15:26:39;21.80;39.40
1506;DHT22;744;51.436;7.356;2023-05-10T15:29:06;21.60;39.40
1506;DHT22;744;51.436;7.356;2023-05-10T15:31:33;21.50;39.10
1506;DHT22;744;51.436;7.356;2023-05-10T15:34:02;21.50;39.70
1506;DHT22;744;51.436;7.356;2023-05-10T15:36:29;21.40;39.60
1506;DHT22;744;51.436;7.356;2023-05-10T15:38:56;21.40;39.60
1506;DHT22;744;51.436;7.356;2023-05-10T15:41:23;21.60;39.80
1506;DHT22;744;51.436;7.356;2023-05-10T15:43:50;21.60;39.20
1506;DHT22;744;51.436;7.356;2023-05-10T15:46:17;21.60;39.20
1506;DHT22;744;51.436;7.356;2023-05-10T15:48:44;21.60;39.20
1506;DHT22;744;51.436;7.356;2023-05-10T15:51:11;21.60;39.20
1506;DHT22;744;51.436;7.356;2023-05-10T15:53:37;21.50;39.70
1506;DHT22;744;51.436;7.356;2023-05-10T15:56:18;21.50;39.30
1506;DHT22;744;51.436;7.356;2023-05-10T15:58:46;21.40;39.40
1506;DHT22;744;51.436;7.356;2023-05-10T16:01:12;21.50;40.10
1506;DHT22;744;51.436;7.356;2023-05-10T16:03:40;21.70;40.00
1506;DHT22;744;51.436;7.356;2023-05-10T16:06:07;21.70;39.50
1506;DHT22;744;51.436;7.356;2023-05-10T16:08:34;21.80;40.00
1506;DHT22;744;51.436;7.356;2023-05-10T16:11:01;21.90;39.50
1506;DHT22;744;51.436;7.356;2023-05-10T16:13:28;22.00;39.60
1506;DHT22;744;51.436;7.356;2023-05-10T16:15:55;22.00;39.60
1506;DHT22;744;51.436;7.356;2023-05-10T16:18:23;22.00;39.60
1506;DHT22;744;51.436;7.356;2023-05-10T16:20:52;22.00;39.60
1506;DHT22;744;51.436;7.356;2023-05-10T16:23:19;21.90;39.50
1506;DHT22;744;51.436;7.356;2023-05-10T16:25:46;21.90;39.50
1506;DHT22;744;51.436;7.356;2023-05-10T16:28:12;21.90;39.50
1506;DHT22;744;51.436;7.356;2023-05-10T16:30:39;21.90;39.50
1506;DHT22;744;51.436;7.356;2023-05-10T16:33:06;21.90;39.50
1506;DHT22;744;51.436;7.356;2023-05-10T16:35:33;21.90;40.20
1506;DHT22;744;51.436;7.356;2023-05-10T16:37:59;21.90;40.50
1506;DHT22;744;51.436;7.356;2023-05-10T16:40:26;21.80;40.70
1506;DHT22;744;51.436;7.356;2023-05-10T16:42:53;21.80;40.90
1506;DHT22;744;51.436;7.356;2023-05-10T16:45:20;21.80;40.60
1506;DHT22;744;51.436;7.356;2023-05-10T16:47:47;21.80;41.00
1506;DHT22;744;51.436;7.356;2023-05-10T16:50:14;21.80;41.10
1506;DHT22;744;51.436;7.356;2023-05-10T16:52:41;21.70;41.10